createdAt,value
2018-05-02T00:01:51.038Z,79.06
2018-05-02T00:07:08.864Z,79.54
2018-05-02T00:09:53.771Z,79.68
2018-05-02T00:12:21.322Z,79.31
2018-05-02T00:14:48.842Z,78.76
2018-05-02T00:17:16.401Z,79.12
2018-05-02T00:19:44.546Z,79.20
2018-05-02T00:22:12.106Z,79.45
2018-05-02T00:24:39.634Z,78.98
2018-05-02T00:27:07.186Z,79.04
2018-05-02T00:29:35.342Z,79.81
2018-05-02T00:32:02.918Z,81.56
2018-05-02T00:34:30.465Z,81.20
2018-05-02T00:36:58.021Z,80.00
2018-05-02T00:39:25.545Z,78.75
2018-05-02T00:41:53.124Z,78.95
2018-05-02T00:44:20.654Z,79.38
2018-05-02T00:46:48.207Z,78.85
2018-05-02T00:49:17.510Z,78.66
2018-05-02T00:51:45.083Z,78.67
2018-05-02T00:54:12.607Z,79.36
2018-05-02T00:56:40.161Z,79.26
2018-05-02T00:59:07.713Z,80.78
2018-05-02T01:01:35.766Z,80.82
2018-05-02T01:04:03.341Z,80.92
2018-05-02T01:06:30.874Z,80.88
2018-05-02T01:08:58.423Z,81.87
2018-05-02T01:11:26.066Z,82.29
2018-05-02T01:13:53.649Z,81.90
2018-05-02T01:16:21.180Z,81.73
2018-05-02T01:18:48.729Z,81.31
2018-05-02T01:21:16.259Z,81.21
2018-05-02T01:23:43.806Z,80.88
2018-05-02T01:26:11.366Z,81.37
2018-05-02T01:28:38.941Z,80.47
2018-05-02T01:31:06.465Z,80.47
2018-05-02T01:33:34.097Z,80.55
2018-05-02T01:36:01.606Z,80.25
2018-05-02T01:38:29.175Z,80.40
2018-05-02T01:40:56.705Z,80.35
2018-05-02T01:43:24.330Z,80.27
2018-05-02T01:45:51.862Z,79.71
2018-05-02T01:48:19.401Z,80.32
2018-05-02T01:50:46.912Z,79.67
2018-05-02T01:53:14.463Z,79.62
2018-05-02T01:55:41.983Z,79.24
2018-05-02T01:58:09.536Z,79.31
2018-05-02T02:00:37.074Z,79.01
2018-05-02T02:03:04.646Z,79.08
2018-05-02T02:05:32.275Z,79.44
2018-05-02T02:07:59.830Z,80.17
2018-05-02T02:10:27.351Z,80.07
2018-05-02T02:12:54.942Z,80.12
2018-05-02T02:15:22.481Z,79.87
2018-05-02T02:17:50.035Z,80.83
2018-05-02T02:20:17.592Z,80.53
2018-05-02T02:22:45.140Z,80.42
2018-05-02T02:25:12.673Z,80.03
2018-05-02T02:27:40.249Z,79.74
2018-05-02T02:30:07.828Z,80.22
2018-05-02T02:32:36.321Z,81.76
2018-05-02T02:35:03.903Z,81.25
2018-05-02T02:37:31.425Z,81.31
2018-05-02T02:39:59.309Z,81.23
2018-05-02T02:42:26.835Z,81.46
2018-05-02T02:44:54.415Z,80.50
2018-05-02T02:47:21.965Z,80.61
2018-05-02T02:49:49.517Z,81.35
2018-05-02T02:52:17.041Z,80.73
2018-05-02T02:54:44.593Z,80.82
2018-05-02T02:57:12.123Z,80.84
2018-05-02T02:59:39.920Z,80.98
2018-05-02T03:02:07.455Z,82.06
2018-05-02T03:04:35.032Z,82.69
2018-05-02T03:07:02.605Z,82.17
2018-05-02T03:09:30.163Z,81.35
2018-05-02T03:11:57.702Z,80.85
2018-05-02T03:14:25.770Z,80.66
2018-05-02T03:16:53.393Z,80.57
2018-05-02T03:19:20.995Z,80.79
2018-05-02T03:21:48.521Z,80.69
2018-05-02T03:24:16.071Z,80.82
2018-05-02T03:26:43.598Z,80.82
2018-05-02T03:29:11.156Z,80.83
2018-05-02T03:31:38.682Z,80.89
2018-05-02T03:34:06.460Z,80.42
2018-05-02T03:36:34.014Z,80.81
2018-05-02T03:39:01.562Z,80.63
2018-05-02T03:41:29.090Z,80.45
2018-05-02T03:43:56.665Z,80.74
2018-05-02T03:46:24.194Z,80.96
2018-05-02T03:48:51.741Z,80.37
2018-05-02T03:51:19.273Z,80.92
2018-05-02T03:53:46.824Z,81.25
2018-05-02T03:56:14.350Z,80.71
2018-05-02T03:58:41.947Z,80.90
2018-05-02T04:01:21.158Z,80.96
2018-05-02T04:04:00.622Z,80.52
2018-05-02T04:06:39.859Z,80.52
2018-05-02T04:09:07.437Z,81.07
2018-05-02T04:11:36.562Z,80.89
2018-05-02T04:14:04.196Z,81.15
2018-05-02T04:16:31.744Z,81.37
2018-05-02T04:18:59.294Z,81.47
2018-05-02T04:21:26.822Z,82.11
2018-05-02T04:23:54.410Z,82.05
2018-05-02T04:26:21.953Z,81.93
2018-05-02T04:28:49.489Z,81.67
2018-05-02T04:31:17.057Z,81.49
2018-05-02T04:33:44.658Z,81.56
2018-05-02T04:36:12.215Z,81.99
2018-05-02T04:38:39.743Z,81.37
2018-05-02T04:41:07.342Z,80.98
2018-05-02T04:43:34.869Z,81.38
2018-05-02T04:46:02.447Z,80.90
2018-05-02T04:48:29.975Z,80.93
2018-05-02T04:50:57.577Z,81.32
2018-05-02T04:53:25.102Z,81.10
2018-05-02T04:55:53.249Z,81.06
2018-05-02T04:58:20.954Z,81.31
2018-05-02T05:00:48.511Z,81.69
2018-05-02T05:03:16.039Z,80.83
2018-05-02T05:05:43.589Z,80.99
2018-05-02T05:08:11.237Z,81.16
2018-05-02T05:10:38.892Z,81.53
2018-05-02T05:13:09.614Z,81.26
2018-05-02T05:15:37.174Z,81.41
2018-05-02T05:18:06.127Z,81.43
2018-05-02T05:20:33.694Z,81.97
2018-05-02T05:23:01.279Z,82.13
2018-05-02T05:25:28.839Z,81.57
2018-05-02T05:27:56.385Z,81.33
2018-05-02T05:30:24.023Z,81.77
2018-05-02T05:32:51.569Z,81.21
2018-05-02T05:35:19.227Z,80.69
2018-05-02T05:37:46.718Z,80.45
2018-05-02T05:40:14.275Z,81.41
2018-05-02T05:42:41.842Z,81.24
2018-05-02T05:45:09.395Z,80.77
2018-05-02T05:47:36.929Z,79.85
2018-05-02T05:50:04.506Z,81.00
2018-05-02T05:52:32.088Z,80.07
2018-05-02T05:54:59.633Z,79.68
2018-05-02T05:57:27.139Z,79.63
2018-05-02T05:59:54.838Z,80.12
2018-05-02T06:02:22.391Z,79.02
2018-05-02T06:04:49.964Z,79.49
2018-05-02T06:07:17.497Z,78.52
2018-05-02T06:09:45.093Z,78.21
2018-05-02T06:12:12.702Z,79.31
2018-05-02T06:14:40.230Z,79.56
2018-05-02T06:17:07.802Z,79.97
2018-05-02T06:19:35.330Z,79.39
2018-05-02T06:22:02.887Z,79.32
2018-05-02T06:24:30.463Z,79.78
2018-05-02T06:26:58.115Z,79.46
2018-05-02T06:29:28.115Z,78.22
2018-05-02T06:31:55.829Z,77.48
2018-05-02T06:34:23.371Z,77.39
2018-05-02T06:36:50.949Z,76.54
2018-05-02T06:39:18.503Z,77.62
2018-05-02T06:41:46.053Z,77.33
2018-05-02T06:44:13.581Z,76.28
2018-05-02T06:46:41.132Z,76.16
2018-05-02T06:49:08.747Z,76.37
2018-05-02T06:51:37.186Z,76.42
2018-05-02T06:54:04.715Z,75.54
2018-05-02T06:56:32.267Z,76.23
2018-05-02T06:58:59.819Z,75.80
2018-05-02T07:01:27.376Z,75.84
2018-05-02T07:03:54.898Z,76.26
2018-05-02T07:06:22.473Z,75.85
2018-05-02T07:08:50.002Z,74.87
2018-05-02T07:11:17.551Z,75.13
2018-05-02T07:13:45.082Z,75.34
2018-05-02T07:16:12.635Z,74.68
2018-05-02T07:18:40.256Z,74.04
2018-05-02T07:21:07.863Z,73.20
2018-05-02T07:23:35.390Z,73.87
2018-05-02T07:26:02.965Z,73.66
2018-05-02T07:28:30.494Z,73.87
2018-05-02T07:30:58.049Z,72.31
2018-05-02T07:33:25.574Z,72.12
2018-05-02T07:35:53.150Z,71.63
2018-05-02T07:38:20.680Z,70.73
2018-05-02T07:40:48.237Z,70.81
2018-05-02T07:43:15.759Z,70.36
2018-05-02T07:45:43.290Z,69.91
2018-05-02T07:48:10.838Z,69.00
2018-05-02T07:50:38.371Z,66.72
2018-05-02T07:53:05.919Z,66.00
2018-05-02T07:55:33.443Z,66.60
2018-05-02T07:58:01.009Z,66.63
2018-05-02T08:00:28.551Z,64.83
2018-05-02T08:02:56.213Z,62.78
2018-05-02T08:05:23.762Z,63.02
2018-05-02T08:07:51.323Z,63.96
2018-05-02T08:10:18.859Z,63.37
2018-05-02T08:12:46.434Z,63.14
2018-05-02T08:15:13.962Z,62.36
2018-05-02T08:17:41.513Z,62.71
2018-05-02T08:20:09.165Z,62.23
2018-05-02T08:22:36.739Z,62.92
2018-05-02T08:25:04.269Z,63.44
2018-05-02T08:27:31.917Z,62.47
2018-05-02T08:29:59.429Z,62.32
2018-05-02T08:32:27.001Z,61.17
2018-05-02T08:34:54.527Z,60.72
2018-05-02T08:37:22.087Z,60.83
2018-05-02T08:39:49.603Z,61.91
2018-05-02T08:42:17.266Z,59.20
2018-05-02T08:44:44.790Z,60.46
2018-05-02T08:47:12.369Z,59.26
2018-05-02T08:49:39.895Z,58.96
2018-05-02T08:52:07.470Z,59.17
2018-05-02T08:54:35.001Z,58.68
2018-05-02T08:57:02.526Z,57.96
2018-05-02T08:59:30.104Z,58.92
2018-05-02T09:01:57.656Z,55.85
2018-05-02T09:04:25.209Z,55.51
2018-05-02T09:06:52.762Z,55.55
2018-05-02T09:09:20.309Z,54.99
2018-05-02T09:11:47.876Z,53.34
2018-05-02T09:14:15.445Z,52.41
2018-05-02T09:16:42.994Z,53.08
2018-05-02T09:19:10.548Z,53.48
2018-05-02T09:21:38.072Z,52.30
2018-05-02T09:24:05.651Z,51.18
2018-05-02T09:26:33.175Z,49.37
2018-05-02T09:29:00.790Z,50.39
2018-05-02T09:31:28.331Z,48.88
2018-05-02T09:33:55.883Z,48.69
2018-05-02T09:36:23.414Z,48.44
2018-05-02T09:38:50.965Z,46.13
2018-05-02T09:41:18.485Z,46.04
2018-05-02T09:43:46.040Z,45.58
2018-05-02T09:46:13.594Z,47.21
2018-05-02T09:48:41.151Z,46.02
2018-05-02T09:51:09.701Z,45.15
2018-05-02T09:53:37.308Z,44.82
2018-05-02T09:56:04.853Z,46.10
2018-05-02T09:58:32.430Z,45.06
2018-05-02T10:00:59.962Z,45.45
2018-05-02T10:03:27.534Z,45.36
2018-05-02T10:05:55.066Z,44.12
2018-05-02T10:08:22.638Z,44.02
2018-05-02T10:10:50.266Z,43.01
2018-05-02T10:13:18.371Z,43.41
2018-05-02T10:15:45.953Z,43.92
2018-05-02T10:18:13.777Z,42.39
2018-05-02T10:20:41.677Z,43.72
2018-05-02T10:23:10.628Z,43.43
2018-05-02T10:25:38.183Z,43.17
2018-05-02T10:28:05.782Z,41.62
2018-05-02T10:30:33.317Z,42.94
2018-05-02T10:33:00.932Z,41.94
2018-05-02T10:35:28.492Z,41.42
2018-05-02T10:37:56.047Z,42.40
2018-05-02T10:40:23.597Z,42.92
2018-05-02T10:42:51.119Z,41.66
2018-05-02T10:45:18.679Z,41.40
2018-05-02T10:47:46.254Z,40.74
2018-05-02T10:50:13.905Z,42.03
2018-05-02T10:52:41.433Z,41.23
2018-05-02T10:55:08.971Z,41.50
2018-05-02T10:57:36.686Z,42.77
2018-05-02T11:00:04.538Z,42.74
2018-05-02T11:02:32.065Z,42.69
2018-05-02T11:04:59.746Z,42.88
2018-05-02T11:07:27.267Z,42.04
2018-05-02T11:09:54.823Z,42.10
2018-05-02T11:12:28.973Z,41.99
2018-05-02T11:14:56.694Z,41.94
2018-05-02T11:17:24.278Z,41.30
2018-05-02T11:19:51.828Z,43.01
2018-05-02T11:22:19.365Z,41.68
2018-05-02T11:24:46.941Z,40.14
2018-05-02T11:27:14.466Z,40.73
2018-05-02T11:29:42.014Z,40.21
2018-05-02T11:32:10.397Z,41.90
2018-05-02T11:34:38.094Z,43.11
2018-05-02T11:37:06.518Z,41.36
2018-05-02T11:39:34.127Z,40.67
2018-05-02T11:42:04.395Z,39.95
2018-05-02T11:44:36.368Z,40.47
2018-05-02T11:47:07.180Z,43.19
2018-05-02T11:49:37.875Z,43.21
2018-05-02T11:52:05.965Z,41.93
2018-05-02T11:54:33.511Z,43.65
2018-05-02T11:57:01.013Z,42.95
2018-05-02T11:59:28.590Z,43.15
2018-05-02T12:01:56.119Z,44.23
2018-05-02T12:04:23.645Z,43.29
2018-05-02T12:06:51.219Z,43.00
2018-05-02T12:09:21.493Z,43.80
2018-05-02T12:11:51.281Z,43.43
2018-05-02T12:14:18.925Z,42.35
2018-05-02T12:16:46.507Z,41.89
2018-05-02T12:19:14.136Z,43.24
2018-05-02T12:21:41.689Z,42.88
2018-05-02T12:24:09.212Z,42.34
2018-05-02T12:26:36.770Z,41.78
2018-05-02T12:29:04.296Z,43.06
2018-05-02T12:31:31.847Z,44.31
2018-05-02T12:33:59.368Z,43.76
2018-05-02T12:36:27.249Z,43.54
2018-05-02T12:38:54.778Z,43.67
2018-05-02T12:41:22.608Z,43.91
2018-05-02T12:43:50.157Z,42.95
2018-05-02T12:46:17.827Z,42.73
2018-05-02T12:48:45.386Z,42.41
2018-05-02T12:51:12.941Z,43.96
2018-05-02T12:53:40.965Z,43.11
2018-05-02T12:56:08.688Z,43.92
2018-05-02T12:58:36.219Z,42.95
2018-05-02T13:01:04.898Z,41.49
2018-05-02T13:03:36.570Z,43.09
2018-05-02T13:06:08.022Z,43.05
2018-05-02T13:08:35.638Z,43.34
2018-05-02T13:11:05.461Z,44.34
2018-05-02T13:13:33.234Z,44.75
2018-05-02T13:16:00.801Z,43.26
2018-05-02T13:18:28.736Z,44.20
2018-05-02T13:20:56.342Z,43.49
2018-05-02T13:23:24.579Z,43.44
2018-05-02T13:25:52.268Z,42.23
2018-05-02T13:28:19.799Z,42.00
2018-05-02T13:30:47.373Z,40.45
2018-05-02T13:33:14.993Z,41.18
2018-05-02T13:35:42.608Z,41.44
2018-05-02T13:38:11.585Z,40.42
2018-05-02T13:40:39.707Z,40.33
2018-05-02T13:43:07.335Z,41.46
2018-05-02T13:45:34.890Z,41.95
2018-05-02T13:48:02.432Z,42.38
2018-05-02T13:50:29.965Z,42.60
2018-05-02T13:53:01.688Z,41.91
2018-05-02T13:55:31.302Z,41.81
2018-05-02T13:57:59.350Z,41.08
2018-05-02T14:00:28.294Z,39.17
2018-05-02T14:02:56.081Z,41.39
2018-05-02T14:05:28.209Z,40.68
2018-05-02T14:07:57.135Z,42.16
2018-05-02T14:10:27.058Z,41.06
2018-05-02T14:12:55.251Z,42.10
2018-05-02T14:15:23.057Z,42.38
2018-05-02T14:17:51.091Z,42.12
2018-05-02T14:20:19.118Z,40.89
2018-05-02T14:22:47.129Z,40.75
2018-05-02T14:25:15.752Z,39.59
2018-05-02T14:27:47.002Z,40.20
2018-05-02T14:30:18.019Z,40.34
2018-05-02T14:32:45.917Z,42.33
2018-05-02T14:35:14.161Z,42.49
2018-05-02T14:37:42.537Z,42.31
2018-05-02T14:40:11.661Z,40.87
2018-05-02T14:42:39.242Z,41.55
2018-05-02T14:45:07.067Z,41.86
2018-05-02T14:47:36.238Z,40.87
2018-05-02T14:50:04.424Z,41.82
2018-05-02T14:52:31.977Z,42.56
2018-05-02T14:55:02.107Z,43.06
2018-05-02T14:57:29.958Z,41.54
2018-05-02T14:59:57.551Z,41.94
2018-05-02T15:02:25.690Z,41.27
2018-05-02T15:04:53.235Z,42.85
2018-05-02T15:07:23.388Z,42.48
2018-05-02T15:09:51.445Z,42.79
2018-05-02T15:12:20.172Z,42.46
2018-05-02T15:14:48.102Z,42.28
2018-05-02T15:17:16.792Z,42.87
2018-05-02T15:19:44.427Z,43.85
2018-05-02T15:22:12.328Z,40.16
2018-05-02T15:24:40.271Z,40.29
2018-05-02T15:27:08.162Z,40.38
2018-05-02T15:29:35.881Z,40.18
2018-05-02T15:32:04.909Z,40.39
2018-05-02T15:34:32.589Z,40.81
2018-05-02T15:37:04.843Z,41.20
2018-05-02T15:39:32.642Z,41.18
2018-05-02T15:42:01.977Z,42.02
2018-05-02T15:44:30.083Z,41.97
2018-05-02T15:46:59.174Z,41.62
2018-05-02T15:49:28.501Z,42.71
2018-05-02T15:51:57.033Z,41.63
2018-05-02T15:54:26.659Z,41.17
2018-05-02T15:56:54.417Z,42.03
2018-05-02T15:59:22.053Z,42.41
2018-05-02T16:01:50.644Z,42.41
2018-05-02T16:04:18.741Z,42.84
2018-05-02T16:06:46.291Z,42.17
2018-05-02T16:09:14.570Z,41.94
2018-05-02T16:11:43.876Z,42.06
2018-05-02T16:14:12.070Z,44.30
2018-05-02T16:16:39.621Z,44.34
2018-05-02T16:19:07.703Z,44.17
2018-05-02T16:21:35.330Z,43.84
2018-05-02T16:24:03.403Z,42.82
2018-05-02T16:26:31.285Z,43.25
2018-05-02T16:29:01.586Z,44.26
2018-05-02T16:31:29.537Z,45.17
2018-05-02T16:33:58.974Z,45.20
2018-05-02T16:36:30.138Z,46.18
2018-05-02T16:38:58.048Z,46.18
2018-05-02T16:41:25.709Z,46.39
2018-05-02T16:43:54.646Z,45.05
2018-05-02T16:46:25.079Z,45.40
2018-05-02T16:48:52.654Z,47.17
2018-05-02T16:51:20.283Z,45.97
2018-05-02T16:53:48.430Z,44.87
2018-05-02T16:56:16.664Z,46.50
2018-05-02T16:58:44.489Z,43.74
2018-05-02T17:01:12.063Z,46.37
2018-05-02T17:03:39.697Z,46.49
2018-05-02T17:06:10.297Z,49.42
2018-05-02T17:08:40.336Z,51.47
2018-05-02T17:11:08.165Z,52.58
2018-05-02T17:13:38.307Z,54.06
2018-05-02T17:16:08.622Z,54.92
2018-05-02T17:18:38.629Z,53.59
2018-05-02T17:21:09.562Z,52.91
2018-05-02T17:23:39.142Z,54.65
2018-05-02T17:26:07.123Z,53.08
2018-05-02T17:28:36.919Z,53.41
2018-05-02T17:31:06.301Z,53.86
2018-05-02T17:33:34.821Z,51.80
2018-05-02T17:36:05.820Z,50.38
2018-05-02T17:38:36.879Z,54.02
2018-05-02T17:41:05.226Z,54.83
2018-05-02T17:43:35.229Z,54.33
2018-05-02T17:46:05.757Z,54.52
2018-05-02T17:48:33.785Z,54.88
2018-05-02T17:51:04.686Z,53.80
2018-05-02T17:53:36.274Z,55.90
2018-05-02T17:56:04.892Z,54.61
2018-05-02T17:58:37.760Z,56.00
2018-05-02T18:01:06.118Z,56.00
2018-05-02T18:03:33.893Z,55.19
2018-05-02T18:06:05.712Z,57.33
2018-05-02T18:08:34.327Z,57.54
2018-05-02T18:11:03.857Z,59.54
2018-05-02T18:13:34.761Z,58.40
2018-05-02T18:16:04.182Z,58.42
2018-05-02T18:18:32.535Z,58.19
2018-05-02T18:21:01.039Z,57.37
2018-05-02T18:23:30.161Z,57.26
2018-05-02T18:25:58.892Z,57.54
2018-05-02T18:28:26.422Z,58.96
2018-05-02T18:30:54.097Z,58.32
2018-05-02T18:33:24.321Z,58.79
2018-05-02T18:35:52.031Z,59.30
2018-05-02T18:38:20.775Z,59.84
2018-05-02T18:40:48.683Z,59.63
2018-05-02T18:43:16.858Z,59.63
2018-05-02T18:45:44.836Z,59.97
2018-05-02T18:48:12.840Z,60.27
2018-05-02T18:50:40.486Z,62.31
2018-05-02T18:53:08.426Z,65.01
2018-05-02T18:55:36.048Z,66.15
2018-05-02T18:58:03.800Z,65.45
2018-05-02T19:00:31.404Z,66.98
2018-05-02T19:02:58.964Z,66.45
2018-05-02T19:05:26.920Z,67.60
2018-05-02T19:07:54.709Z,66.44
2018-05-02T19:10:22.311Z,66.59
2018-05-02T19:12:49.837Z,66.44
2018-05-02T19:15:17.419Z,66.84
2018-05-02T19:17:50.619Z,67.55
2018-05-02T19:20:23.770Z,66.25
2018-05-02T19:22:51.293Z,67.05
2018-05-02T19:25:24.397Z,66.71
2018-05-02T19:27:51.925Z,66.49
2018-05-02T19:30:19.529Z,67.79
2018-05-02T19:32:53.035Z,67.50
2018-05-02T19:35:20.686Z,68.24
2018-05-02T19:37:48.202Z,68.48
2018-05-02T19:40:21.362Z,68.92
2018-05-02T19:45:50.962Z,69.13
2018-05-02T19:48:18.543Z,70.89
2018-05-02T19:50:51.713Z,70.27
2018-05-02T19:53:19.273Z,71.92
2018-05-02T19:55:47.426Z,71.53
2018-05-02T19:58:15.007Z,71.99
2018-05-02T20:00:48.235Z,70.15
2018-05-02T20:03:15.753Z,69.07
2018-05-02T20:05:43.835Z,70.07
2018-05-02T20:08:17.025Z,69.82
2018-05-02T20:13:53.589Z,70.58
2018-05-02T20:16:21.470Z,70.46
2018-05-02T20:18:48.998Z,70.03
2018-05-02T20:21:17.492Z,70.61
2018-05-02T20:23:45.022Z,71.51
2018-05-02T20:26:12.577Z,72.37
2018-05-02T20:28:40.185Z,71.02
2018-05-02T20:31:07.751Z,71.08
2018-05-02T20:33:35.291Z,71.49
2018-05-02T20:36:07.441Z,72.09
2018-05-02T20:38:36.456Z,73.01
2018-05-02T20:41:04.041Z,71.72
2018-05-02T20:43:34.153Z,72.12
2018-05-02T20:46:01.919Z,72.53
2018-05-02T20:48:29.449Z,74.19
2018-05-02T20:50:57.000Z,73.04
2018-05-02T20:53:24.603Z,72.45
2018-05-02T20:55:52.131Z,72.28
2018-05-02T20:58:19.715Z,71.96
2018-05-02T21:00:47.633Z,72.35
2018-05-02T21:03:15.215Z,72.25
2018-05-02T21:05:42.741Z,72.06
2018-05-02T21:08:10.289Z,72.76
2018-05-02T21:10:37.815Z,72.01
2018-05-02T21:13:05.374Z,71.67
2018-05-02T21:15:32.897Z,73.15
2018-05-02T21:18:02.625Z,74.12
2018-05-02T21:20:30.148Z,73.49
2018-05-02T21:22:57.769Z,72.85
2018-05-02T21:25:25.286Z,73.62
2018-05-02T21:27:52.834Z,73.89
2018-05-02T21:30:20.386Z,73.79
2018-05-02T21:32:48.090Z,74.29
2018-05-02T21:35:15.614Z,73.91
2018-05-02T21:37:43.195Z,74.34
2018-05-02T21:40:10.722Z,74.92
2018-05-02T21:42:38.353Z,75.17
2018-05-02T21:45:05.925Z,75.16
2018-05-02T21:47:33.480Z,75.00
2018-05-02T21:50:01.006Z,75.57
2018-05-02T21:52:29.588Z,75.21
2018-05-02T21:54:57.186Z,75.12
2018-05-02T21:57:24.763Z,76.04
2018-05-02T21:59:52.314Z,76.20
2018-05-02T22:02:19.941Z,75.19
2018-05-02T22:04:48.193Z,75.54
2018-05-02T22:07:16.091Z,76.52
2018-05-02T22:09:43.769Z,75.87
2018-05-02T22:12:11.478Z,75.48
2018-05-02T22:14:39.105Z,75.37
2018-05-02T22:17:06.761Z,75.68
2018-05-02T22:19:34.805Z,76.01
2018-05-02T22:22:02.584Z,76.96
2018-05-02T22:24:30.238Z,76.90
2018-05-02T22:26:58.038Z,76.89
2018-05-02T22:29:25.618Z,77.10
2018-05-02T22:31:53.242Z,76.63
2018-05-02T22:34:20.889Z,77.57
2018-05-02T22:36:48.548Z,77.14
2018-05-02T22:39:17.248Z,77.41
2018-05-02T22:41:44.903Z,76.50
2018-05-02T22:44:12.660Z,77.95
2018-05-02T22:46:40.234Z,78.88
2018-05-02T22:49:07.885Z,78.26
2018-05-02T22:51:35.438Z,77.77
2018-05-02T22:54:03.313Z,77.32
2018-05-02T22:56:30.912Z,77.75
2018-05-02T22:58:58.541Z,77.76
2018-05-02T23:01:26.240Z,78.36
2018-05-02T23:03:53.936Z,78.21
2018-05-02T23:06:21.597Z,77.97
2018-05-02T23:08:49.271Z,77.92
2018-05-02T23:11:17.249Z,77.75
2018-05-02T23:13:44.912Z,78.47
2018-05-02T23:16:12.586Z,78.50
2018-05-02T23:18:40.109Z,78.34
2018-05-02T23:21:07.661Z,78.21
2018-05-02T23:23:35.210Z,78.65
2018-05-02T23:26:02.810Z,77.65
2018-05-02T23:28:30.370Z,78.80
2018-05-02T23:30:57.914Z,78.71
2018-05-02T23:33:25.422Z,79.06
2018-05-02T23:35:52.974Z,78.49
2018-05-02T23:38:20.613Z,79.40
2018-05-02T23:40:48.554Z,78.86
2018-05-02T23:43:16.081Z,78.83
2018-05-02T23:45:43.639Z,80.28
2018-05-02T23:48:11.159Z,79.34
2018-05-02T23:50:38.718Z,80.21
2018-05-02T23:53:06.266Z,79.23
2018-05-02T23:55:33.819Z,79.01
2018-05-02T23:58:01.394Z,79.79
